createdAt,value
2017-11-27T00:01:42.641Z,95329.77
2017-11-27T00:04:11.001Z,95325.59
2017-11-27T00:06:39.348Z,95311.36
2017-11-27T00:09:07.699Z,95315.22
2017-11-27T00:11:36.077Z,95326.86
2017-11-27T00:14:04.465Z,95330.22
2017-11-27T00:16:32.792Z,95329.44
2017-11-27T00:19:01.176Z,95324.81
2017-11-27T00:21:29.531Z,95324.10
2017-11-27T00:23:57.879Z,95328.05
2017-11-27T00:26:26.492Z,95331.11
2017-11-27T00:28:54.836Z,95327.16
2017-11-27T00:31:23.200Z,95320.63
2017-11-27T00:33:51.573Z,95327.58
2017-11-27T00:36:19.921Z,95315.25
2017-11-27T00:38:48.269Z,95311.48
2017-11-27T00:41:16.656Z,95318.09
2017-11-27T00:43:45.007Z,95314.84
2017-11-27T00:46:13.359Z,95321.34
2017-11-27T00:48:41.745Z,95315.16
2017-11-27T00:51:10.109Z,95311.07
2017-11-27T00:53:38.453Z,95312.85
2017-11-27T00:56:06.845Z,95317.00
2017-11-27T00:58:35.191Z,95320.76
2017-11-27T01:01:03.533Z,95316.28
2017-11-27T01:03:31.916Z,95318.39
2017-11-27T01:06:00.259Z,95311.64
2017-11-27T01:08:28.640Z,95316.27
2017-11-27T01:10:56.992Z,95308.70
2017-11-27T01:13:25.335Z,95309.53
2017-11-27T01:15:53.713Z,95308.34
2017-11-27T01:18:22.062Z,95301.73
2017-11-27T01:20:50.456Z,95299.03
2017-11-27T01:23:18.800Z,95303.38
2017-11-27T01:25:47.151Z,95306.37
2017-11-27T01:28:15.540Z,95306.46
2017-11-27T01:30:43.896Z,95321.04
2017-11-27T01:33:12.275Z,95316.09
2017-11-27T01:35:40.626Z,95310.86
2017-11-27T01:38:08.973Z,95311.86
2017-11-27T01:40:37.316Z,95314.66
2017-11-27T01:43:05.693Z,95316.70
2017-11-27T01:45:34.036Z,95312.20
2017-11-27T01:48:02.381Z,95305.08
2017-11-27T01:50:30.723Z,95306.55
2017-11-27T01:52:59.072Z,95308.22
2017-11-27T01:55:27.451Z,95310.47
2017-11-27T01:57:55.804Z,95314.42
2017-11-27T02:00:24.188Z,95310.77
2017-11-27T02:02:52.533Z,95311.10
2017-11-27T02:05:20.875Z,95316.92
2017-11-27T02:07:49.233Z,95318.87
2017-11-27T02:10:17.580Z,95302.62
2017-11-27T02:12:45.974Z,95319.84
2017-11-27T02:15:14.331Z,95318.39
2017-11-27T02:17:42.678Z,95322.47
2017-11-27T02:20:11.026Z,95328.52
2017-11-27T02:22:39.361Z,95322.14
2017-11-27T02:25:07.736Z,95318.41
2017-11-27T02:27:36.073Z,95317.34
2017-11-27T02:30:04.420Z,95316.61
2017-11-27T02:32:32.757Z,95310.70
2017-11-27T02:35:01.101Z,95312.14
2017-11-27T02:37:29.480Z,95307.72
2017-11-27T02:39:57.822Z,95304.16
2017-11-27T02:42:26.165Z,95310.29
2017-11-27T02:44:54.510Z,95297.11
2017-11-27T02:47:22.857Z,95296.20
2017-11-27T02:49:51.215Z,95295.09
2017-11-27T02:52:19.564Z,95292.30
2017-11-27T02:54:47.903Z,95291.17
2017-11-27T02:57:16.249Z,95292.94
2017-11-27T02:59:44.587Z,95287.33
2017-11-27T03:02:12.983Z,95285.86
2017-11-27T03:04:41.313Z,95287.15
2017-11-27T03:07:09.701Z,95282.50
2017-11-27T03:09:38.039Z,95286.34
2017-11-27T03:12:06.403Z,95290.23
2017-11-27T03:14:34.744Z,95292.80
2017-11-27T03:17:03.081Z,95283.65
2017-11-27T03:19:31.428Z,95287.95
2017-11-27T03:21:59.769Z,95277.94
2017-11-27T03:24:28.227Z,95271.88
2017-11-27T03:26:56.578Z,95270.72
2017-11-27T03:29:24.922Z,95282.15
2017-11-27T03:31:53.272Z,95268.20
2017-11-27T03:34:21.616Z,95265.97
2017-11-27T03:36:49.999Z,95268.87
2017-11-27T03:39:18.332Z,95256.61
2017-11-27T03:41:46.693Z,95256.86
2017-11-27T03:44:15.040Z,95261.09
2017-11-27T03:46:43.392Z,95260.99
2017-11-27T03:49:11.779Z,95261.81
2017-11-27T03:51:40.120Z,95256.59
2017-11-27T03:54:08.452Z,95247.22
2017-11-27T03:56:36.792Z,95247.28
2017-11-27T03:59:05.130Z,95235.23
2017-11-27T04:01:33.509Z,95238.43
2017-11-27T04:04:01.903Z,95236.95
2017-11-27T04:06:30.328Z,95236.92
2017-11-27T04:08:58.681Z,95229.50
2017-11-27T04:11:27.059Z,95222.28
2017-11-27T04:13:55.487Z,95218.52
2017-11-27T04:16:23.858Z,95225.99
2017-11-27T04:18:52.191Z,95225.21
2017-11-27T04:21:20.588Z,95215.02
2017-11-27T04:23:48.926Z,95222.70
2017-11-27T04:26:17.389Z,95221.30
2017-11-27T04:28:45.741Z,95205.84
2017-11-27T04:31:14.081Z,95205.47
2017-11-27T04:33:42.417Z,95206.20
2017-11-27T04:36:10.748Z,95191.93
2017-11-27T04:38:39.117Z,95196.83
2017-11-27T04:41:07.449Z,95196.55
2017-11-27T04:43:35.785Z,95199.22
2017-11-27T04:46:04.123Z,95201.31
2017-11-27T04:48:32.460Z,95193.41
2017-11-27T04:51:00.928Z,95194.48
2017-11-27T04:53:29.261Z,95197.05
2017-11-27T04:55:57.604Z,95198.83
2017-11-27T04:58:25.951Z,95201.50
2017-11-27T05:00:54.284Z,95189.72
2017-11-27T05:03:22.653Z,95191.37
2017-11-27T05:05:51.003Z,95177.16
2017-11-27T05:08:19.371Z,95172.41
2017-11-27T05:10:47.714Z,95176.77
2017-11-27T05:13:16.070Z,95164.20
2017-11-27T05:15:44.408Z,95166.63
2017-11-27T05:18:12.752Z,95163.67
2017-11-27T05:20:41.136Z,95160.73
2017-11-27T05:23:09.469Z,95159.73
2017-11-27T05:25:37.841Z,95155.33
2017-11-27T05:28:06.185Z,95153.20
2017-11-27T05:30:34.541Z,95152.59
2017-11-27T05:33:02.904Z,95161.21
2017-11-27T05:35:31.241Z,95160.99
2017-11-27T05:37:59.580Z,95158.86
2017-11-27T05:40:27.920Z,95154.98
2017-11-27T05:42:56.309Z,95154.02
2017-11-27T05:45:24.676Z,95144.97
2017-11-27T05:47:53.026Z,95162.80
2017-11-27T05:50:21.356Z,95152.02
2017-11-27T05:52:49.701Z,95146.06
2017-11-27T05:55:18.051Z,95143.91
2017-11-27T05:57:46.435Z,95138.30
2017-11-27T06:00:14.777Z,95143.80
2017-11-27T06:02:43.112Z,95126.34
2017-11-27T06:05:11.453Z,95135.16
2017-11-27T06:07:39.801Z,95133.48
2017-11-27T06:10:08.280Z,95128.69
2017-11-27T06:12:36.617Z,95123.72
2017-11-27T06:15:06.863Z,95122.63
2017-11-27T06:17:35.206Z,95121.79
2017-11-27T06:20:08.810Z,95121.11
2017-11-27T06:22:37.155Z,95114.95
2017-11-27T06:25:05.487Z,95105.35
2017-11-27T06:27:33.830Z,95107.06
2017-11-27T06:30:02.185Z,95111.55
2017-11-27T06:32:30.554Z,95104.50
2017-11-27T06:34:58.896Z,95107.46
2017-11-27T06:37:28.437Z,95098.70
2017-11-27T06:39:57.243Z,95106.73
2017-11-27T06:42:25.593Z,95102.45
2017-11-27T06:44:53.978Z,95099.66
2017-11-27T06:47:22.488Z,95092.44
2017-11-27T06:49:50.812Z,95096.81
2017-11-27T06:52:20.022Z,95100.77
2017-11-27T06:54:48.382Z,95098.48
2017-11-27T06:57:16.768Z,95099.50
2017-11-27T06:59:45.121Z,95087.52
2017-11-27T07:02:13.457Z,95090.73
2017-11-27T07:04:41.799Z,95078.11
2017-11-27T07:07:10.145Z,95071.03
2017-11-27T07:09:38.513Z,95066.78
2017-11-27T07:12:06.860Z,95059.75
2017-11-27T07:14:35.347Z,95066.64
2017-11-27T07:17:03.809Z,95049.41
2017-11-27T07:19:32.145Z,95059.95
2017-11-27T07:22:00.545Z,95051.50
2017-11-27T07:24:28.883Z,95049.53
2017-11-27T07:26:57.426Z,95046.16
2017-11-27T07:29:25.769Z,95046.81
2017-11-27T07:31:54.236Z,95042.70
2017-11-27T07:34:24.752Z,95033.40
2017-11-27T07:36:53.095Z,95026.72
2017-11-27T07:39:27.080Z,95018.66
2017-11-27T07:41:55.419Z,95018.03
2017-11-27T07:44:23.870Z,95020.55
2017-11-27T07:46:52.211Z,95011.91
2017-11-27T07:49:21.389Z,95012.87
2017-11-27T07:51:49.743Z,95011.76
2017-11-27T07:54:18.122Z,95012.16
2017-11-27T07:56:46.475Z,95006.64
2017-11-27T07:59:14.824Z,95010.84
2017-11-27T08:01:43.165Z,95002.91
2017-11-27T08:04:11.499Z,94999.47
2017-11-27T08:06:39.867Z,95007.84
2017-11-27T08:09:08.241Z,94990.12
2017-11-27T08:11:36.580Z,94994.74
2017-11-27T08:14:04.924Z,94990.27
2017-11-27T08:16:33.278Z,94980.33
2017-11-27T08:19:01.615Z,94981.12
2017-11-27T08:21:29.972Z,94977.19
2017-11-27T08:23:58.316Z,94981.27
2017-11-27T08:26:26.685Z,94973.95
2017-11-27T08:28:55.029Z,94970.63
2017-11-27T08:31:23.403Z,94963.59
2017-11-27T08:33:51.752Z,94970.52
2017-11-27T08:36:20.093Z,94970.53
2017-11-27T08:38:48.460Z,94964.34
2017-11-27T08:41:16.801Z,94955.08
2017-11-27T08:43:45.168Z,94950.88
2017-11-27T08:46:13.503Z,94953.45
2017-11-27T08:48:41.845Z,94948.42
2017-11-27T08:51:10.188Z,94940.87
2017-11-27T08:53:38.524Z,94937.23
2017-11-27T08:56:06.897Z,94937.13
2017-11-27T08:58:35.239Z,94929.83
2017-11-27T09:01:03.598Z,94929.45
2017-11-27T09:03:31.940Z,94917.79
2017-11-27T09:06:00.289Z,94916.02
2017-11-27T09:08:28.669Z,94915.80
2017-11-27T09:10:57.017Z,94905.72
2017-11-27T09:13:25.356Z,94913.94
2017-11-27T09:15:53.700Z,94912.47
2017-11-27T09:18:22.044Z,94894.53
2017-11-27T09:20:50.414Z,94887.84
2017-11-27T09:23:18.758Z,94880.42
2017-11-27T09:25:47.102Z,94877.13
2017-11-27T09:28:15.502Z,94883.55
2017-11-27T09:30:43.851Z,94868.91
2017-11-27T09:33:12.311Z,94863.93
2017-11-27T09:35:40.655Z,94870.33
2017-11-27T09:38:08.996Z,94868.88
2017-11-27T09:40:37.337Z,94858.87
2017-11-27T09:43:05.678Z,94857.50
2017-11-27T09:45:34.045Z,94846.66
2017-11-27T09:48:02.401Z,94841.95
2017-11-27T09:50:30.759Z,94831.69
2017-11-27T09:52:59.105Z,94823.98
2017-11-27T09:55:27.443Z,94812.76
2017-11-27T09:57:55.912Z,94821.11
2017-11-27T10:00:24.303Z,94814.58
2017-11-27T10:02:52.649Z,94808.13
2017-11-27T10:05:20.994Z,94807.27
2017-11-27T10:07:49.340Z,94799.92
2017-11-27T10:10:17.813Z,94802.35
2017-11-27T10:12:46.164Z,94782.95
2017-11-27T10:15:14.511Z,94783.69
2017-11-27T10:17:42.860Z,94780.89
2017-11-27T10:20:11.207Z,94777.38
2017-11-27T10:22:39.612Z,94770.77
2017-11-27T10:25:07.960Z,94774.66
2017-11-27T10:27:36.344Z,94764.19
2017-11-27T10:30:04.692Z,94757.30
2017-11-27T10:32:33.031Z,94753.48
2017-11-27T10:35:01.409Z,94757.97
2017-11-27T10:37:29.753Z,94740.66
2017-11-27T10:39:58.102Z,94726.09
2017-11-27T10:42:26.458Z,94733.45
2017-11-27T10:44:54.808Z,94724.73
2017-11-27T10:47:23.178Z,94718.09
2017-11-27T10:49:51.561Z,94713.48
2017-11-27T10:52:19.908Z,94709.75
2017-11-27T10:54:48.390Z,94700.93
2017-11-27T10:57:16.727Z,94702.17
2017-11-27T10:59:45.076Z,94690.55
2017-11-27T11:02:13.457Z,94690.55
2017-11-27T11:04:41.812Z,94672.05
2017-11-27T11:07:10.196Z,94669.44
2017-11-27T11:09:38.544Z,94667.78
2017-11-27T11:12:06.896Z,94658.94
2017-11-27T11:14:35.241Z,94649.05
2017-11-27T11:17:03.588Z,94640.59
2017-11-27T11:19:31.949Z,94637.94
2017-11-27T11:22:00.348Z,94628.94
2017-11-27T11:24:28.696Z,94625.92
2017-11-27T11:26:57.038Z,94618.42
2017-11-27T11:29:25.386Z,94626.59
2017-11-27T11:31:53.750Z,94613.67
2017-11-27T11:34:22.118Z,94614.25
2017-11-27T11:36:50.461Z,94606.16
2017-11-27T11:39:18.808Z,94592.29
2017-11-27T11:41:47.180Z,94584.70
2017-11-27T11:44:15.530Z,94583.25
2017-11-27T11:46:43.904Z,94580.41
2017-11-27T11:49:12.244Z,94580.34
2017-11-27T11:51:40.595Z,94555.84
2017-11-27T11:54:08.937Z,94558.50
2017-11-27T11:56:37.281Z,94553.63
2017-11-27T11:59:05.760Z,94551.53
2017-11-27T12:01:34.105Z,94552.98
2017-11-27T12:04:02.452Z,94550.83
2017-11-27T12:06:30.798Z,94543.90
2017-11-27T12:08:59.144Z,94531.89
2017-11-27T12:11:27.536Z,94533.12
2017-11-27T12:13:55.873Z,94539.34
2017-11-27T12:16:24.211Z,94516.73
2017-11-27T12:18:52.544Z,94520.48
2017-11-27T12:21:20.888Z,94519.21
2017-11-27T12:23:49.364Z,94497.22
2017-11-27T12:26:17.714Z,94510.63
2017-11-27T12:28:46.049Z,94504.06
2017-11-27T12:31:14.404Z,94485.71
2017-11-27T12:33:43.090Z,94486.30
2017-11-27T12:36:11.460Z,94474.98
2017-11-27T12:38:39.813Z,94452.72
2017-11-27T12:41:08.156Z,94464.33
2017-11-27T12:43:36.492Z,94453.88
2017-11-27T12:46:04.845Z,94464.06
2017-11-27T12:48:33.212Z,94445.45
2017-11-27T12:51:01.558Z,94453.49
2017-11-27T12:53:29.911Z,94437.57
2017-11-27T12:55:58.244Z,94434.77
2017-11-27T12:58:26.589Z,94433.47
2017-11-27T13:00:54.968Z,94433.98
2017-11-27T13:03:23.315Z,94425.38
2017-11-27T13:05:51.693Z,94426.06
2017-11-27T13:08:20.028Z,94418.55
2017-11-27T13:10:48.369Z,94422.16
2017-11-27T13:13:16.708Z,94418.44
2017-11-27T13:15:45.057Z,94415.25
2017-11-27T13:18:13.437Z,94414.98
2017-11-27T13:20:41.788Z,94405.72
2017-11-27T13:23:10.168Z,94396.44
2017-11-27T13:25:38.548Z,94409.20
2017-11-27T13:28:06.886Z,94398.51
2017-11-27T13:30:35.215Z,94393.72
2017-11-27T13:33:03.563Z,94393.33
2017-11-27T13:35:31.937Z,94389.52
2017-11-27T13:38:00.579Z,94382.22
2017-11-27T13:40:28.982Z,94380.30
2017-11-27T13:42:57.317Z,94380.95
2017-11-27T13:45:25.664Z,94372.93
2017-11-27T13:47:54.004Z,94368.89
2017-11-27T13:50:22.380Z,94372.18
2017-11-27T13:52:50.725Z,94369.07
2017-11-27T13:55:19.077Z,94347.61
2017-11-27T13:57:47.416Z,94351.03
2017-11-27T14:00:15.756Z,94363.82
2017-11-27T14:02:44.125Z,94349.98
2017-11-27T14:05:12.463Z,94352.33
2017-11-27T14:07:40.811Z,94334.61
2017-11-27T14:10:09.141Z,94345.63
2017-11-27T14:12:37.495Z,94340.34
2017-11-27T14:15:05.877Z,94340.00
2017-11-27T14:17:34.220Z,94329.33
2017-11-27T14:20:02.566Z,94325.08
2017-11-27T14:22:30.909Z,94327.06
2017-11-27T14:24:59.273Z,94325.00
2017-11-27T14:27:27.626Z,94319.39
2017-11-27T14:29:55.984Z,94315.42
2017-11-27T14:32:24.437Z,94311.08
2017-11-27T14:34:52.782Z,94304.59
2017-11-27T14:37:21.113Z,94308.69
2017-11-27T14:39:49.452Z,94294.80
2017-11-27T14:42:17.788Z,94303.33
2017-11-27T14:44:46.157Z,94300.03
2017-11-27T14:47:14.502Z,94299.89
2017-11-27T14:49:42.845Z,94298.66
2017-11-27T14:52:11.177Z,94296.61
2017-11-27T14:54:39.561Z,94295.48
2017-11-27T14:57:07.918Z,94294.18
2017-11-27T14:59:36.238Z,94288.70
2017-11-27T15:02:04.565Z,94289.67
2017-11-27T15:04:32.933Z,94279.98
2017-11-27T15:07:01.276Z,94281.73
2017-11-27T15:09:29.714Z,94267.02
2017-11-27T15:11:58.057Z,94273.43
2017-11-27T15:14:26.412Z,94273.26
2017-11-27T15:16:54.777Z,94264.80
2017-11-27T15:19:23.130Z,94269.83
2017-11-27T15:21:51.488Z,94255.03
2017-11-27T15:24:19.857Z,94261.94
2017-11-27T15:26:48.204Z,94263.69
2017-11-27T15:29:16.569Z,94262.45
2017-11-27T15:31:44.937Z,94267.01
2017-11-27T15:34:13.328Z,94254.97
2017-11-27T15:36:41.674Z,94254.45
2017-11-27T15:39:10.012Z,94256.19
2017-11-27T15:41:38.355Z,94253.55
2017-11-27T15:44:06.737Z,94247.53
2017-11-27T15:46:35.082Z,94244.23
2017-11-27T15:49:03.449Z,94242.14
2017-11-27T15:51:31.812Z,94252.06
2017-11-27T15:54:00.147Z,94239.37
2017-11-27T15:56:28.501Z,94231.61
2017-11-27T15:58:56.845Z,94229.06
2017-11-27T16:01:25.178Z,94230.89
2017-11-27T16:03:53.510Z,94226.16
2017-11-27T16:06:21.848Z,94232.13
2017-11-27T16:08:50.261Z,94225.97
2017-11-27T16:11:18.601Z,94218.13
2017-11-27T16:13:46.954Z,94220.81
2017-11-27T16:16:15.304Z,94218.09
2017-11-27T16:18:43.651Z,94202.94
2017-11-27T16:21:12.144Z,94211.64
2017-11-27T16:23:40.479Z,94205.31
2017-11-27T16:26:08.833Z,94205.81
2017-11-27T16:28:37.167Z,94213.10
2017-11-27T16:31:05.509Z,94212.34
2017-11-27T16:33:33.858Z,94201.94
2017-11-27T16:36:02.189Z,94199.84
2017-11-27T16:38:30.556Z,94190.44
2017-11-27T16:40:58.928Z,94189.89
2017-11-27T16:43:27.280Z,94182.12
2017-11-27T16:45:55.647Z,94191.56
2017-11-27T16:48:23.988Z,94192.10
2017-11-27T16:50:52.324Z,94194.34
2017-11-27T16:53:20.695Z,94183.13
2017-11-27T16:55:49.045Z,94186.91
2017-11-27T16:58:17.372Z,94184.95
2017-11-27T17:00:45.757Z,94171.34
2017-11-27T17:03:14.099Z,94174.41
2017-11-27T17:05:42.441Z,94175.17
2017-11-27T17:08:11.657Z,94173.00
2017-11-27T17:10:40.005Z,94172.66
2017-11-27T17:13:08.328Z,94166.54
2017-11-27T17:15:36.679Z,94166.91
2017-11-27T17:18:05.024Z,94166.17
2017-11-27T17:20:33.505Z,94165.90
2017-11-27T17:23:01.848Z,94158.33
2017-11-27T17:25:30.185Z,94154.98
2017-11-27T17:27:58.532Z,94156.06
2017-11-27T17:30:26.863Z,94156.34
2017-11-27T17:32:55.236Z,94149.20
2017-11-27T17:35:23.567Z,94146.56
2017-11-27T17:37:51.928Z,94145.23
2017-11-27T17:40:20.276Z,94143.30
2017-11-27T17:42:48.608Z,94141.05
2017-11-27T17:45:16.970Z,94144.95
2017-11-27T17:47:45.307Z,94139.45
2017-11-27T17:50:13.648Z,94133.72
2017-11-27T17:52:41.999Z,94129.41
2017-11-27T17:55:10.387Z,94126.38
2017-11-27T17:57:39.468Z,94133.52
2017-11-27T18:00:07.841Z,94126.84
2017-11-27T18:02:36.197Z,94114.45
2017-11-27T18:05:04.536Z,94112.47
2017-11-27T18:07:32.873Z,94119.33
2017-11-27T18:10:01.245Z,94107.75
2017-11-27T18:12:29.591Z,94114.72
2017-11-27T18:14:57.928Z,94109.05
2017-11-27T18:17:26.272Z,94108.19
2017-11-27T18:19:54.620Z,94109.31
2017-11-27T18:22:22.977Z,94105.29
2017-11-27T18:24:51.323Z,94103.81
2017-11-27T18:27:19.661Z,94103.05
2017-11-27T18:29:48.009Z,94098.16
2017-11-27T18:32:16.344Z,94099.54
2017-11-27T18:34:44.728Z,94097.17
2017-11-27T18:37:13.065Z,94095.45
2017-11-27T18:39:41.395Z,94090.98
2017-11-27T18:42:09.724Z,94088.92
2017-11-27T18:44:38.060Z,94084.79
2017-11-27T18:47:06.424Z,94090.70
2017-11-27T18:49:34.761Z,94081.02
2017-11-27T18:52:03.097Z,94091.55
2017-11-27T18:54:31.455Z,94075.89
2017-11-27T18:56:59.782Z,94076.52
2017-11-27T18:59:28.354Z,94061.72
2017-11-27T19:01:56.685Z,94055.77
2017-11-27T19:04:25.022Z,94063.77
2017-11-27T19:06:53.366Z,94057.03
2017-11-27T19:09:21.719Z,94049.25
2017-11-27T19:11:50.128Z,94056.52
2017-11-27T19:14:18.461Z,94047.05
2017-11-27T19:16:46.806Z,94045.12
2017-11-27T19:19:15.138Z,94042.27
2017-11-27T19:21:43.465Z,94036.43
2017-11-27T19:24:11.837Z,94046.69
2017-11-27T19:26:40.168Z,94042.63
2017-11-27T19:29:08.505Z,94036.77
2017-11-27T19:31:36.849Z,94037.78
2017-11-27T19:34:05.196Z,94031.00
2017-11-27T19:36:33.570Z,94034.55
2017-11-27T19:39:01.900Z,94022.05
2017-11-27T19:41:30.245Z,94030.20
2017-11-27T19:43:58.570Z,94022.98
2017-11-27T19:46:26.908Z,94022.06
2017-11-27T19:48:55.271Z,94016.61
2017-11-27T19:51:23.605Z,94008.44
2017-11-27T19:53:51.928Z,94009.31
2017-11-27T19:56:20.275Z,94013.47
2017-11-27T19:58:48.605Z,93997.16
2017-11-27T20:01:16.989Z,94009.33
2017-11-27T20:03:45.322Z,94009.30
2017-11-27T20:06:13.656Z,94005.08
2017-11-27T20:08:41.992Z,94005.67
2017-11-27T20:11:10.325Z,94005.88
2017-11-27T20:13:38.688Z,94010.52
2017-11-27T20:16:07.060Z,94005.55
2017-11-27T20:18:35.395Z,94004.57
2017-11-27T20:21:03.769Z,94010.84
2017-11-27T20:23:32.333Z,94004.41
2017-11-27T20:26:00.704Z,93998.55
2017-11-27T20:28:29.074Z,93998.94
2017-11-27T20:30:57.415Z,93992.05
2017-11-27T20:33:25.781Z,93995.00
2017-11-27T20:35:54.136Z,93983.84
2017-11-27T20:38:22.472Z,93990.36
2017-11-27T20:40:51.109Z,93980.73
2017-11-27T20:43:19.697Z,93986.48
2017-11-27T20:45:48.351Z,93991.07
2017-11-27T20:48:17.099Z,93988.14
2017-11-27T20:50:45.609Z,93981.91
2017-11-27T20:53:14.192Z,93972.48
2017-11-27T20:55:42.866Z,93979.20
2017-11-27T20:58:11.418Z,93973.59
2017-11-27T21:00:40.024Z,93973.52
2017-11-27T21:03:09.006Z,93960.96
2017-11-27T21:05:37.863Z,93966.61
2017-11-27T21:08:06.461Z,93959.32
2017-11-27T21:10:35.035Z,93956.59
2017-11-27T21:13:03.754Z,93956.16
2017-11-27T21:15:32.329Z,93947.52
2017-11-27T21:18:01.021Z,93946.28
2017-11-27T21:20:29.683Z,93938.83
2017-11-27T21:22:58.361Z,93943.45
2017-11-27T21:25:27.007Z,93946.11
2017-11-27T21:27:55.603Z,93942.17
2017-11-27T21:30:24.194Z,93947.44
2017-11-27T21:32:52.714Z,93935.53
2017-11-27T21:35:21.456Z,93926.31
2017-11-27T21:37:50.225Z,93940.02
2017-11-27T21:40:18.833Z,93934.25
2017-11-27T21:42:47.630Z,93930.24
2017-11-27T21:45:16.220Z,93927.37
2017-11-27T21:47:44.705Z,93916.34
2017-11-27T21:50:13.200Z,93909.33
2017-11-27T21:52:41.906Z,93918.35
2017-11-27T21:55:10.509Z,93918.28
2017-11-27T21:57:39.171Z,93909.13
2017-11-27T22:00:07.703Z,93917.06
2017-11-27T22:02:36.210Z,93906.19
2017-11-27T22:05:04.786Z,93899.94
2017-11-27T22:07:33.376Z,93895.53
2017-11-27T22:10:02.252Z,93881.72
2017-11-27T22:12:30.989Z,93885.69
2017-11-27T22:14:59.492Z,93881.41
2017-11-27T22:17:27.962Z,93893.56
2017-11-27T22:19:56.607Z,93887.60
2017-11-27T22:22:25.193Z,93885.45
2017-11-27T22:24:53.960Z,93893.09
2017-11-27T22:27:22.575Z,93884.65
2017-11-27T22:29:51.356Z,93886.57
2017-11-27T22:32:20.007Z,93878.54
2017-11-27T22:34:48.624Z,93879.05
2017-11-27T22:37:17.193Z,93882.88
2017-11-27T22:39:45.625Z,93881.52
2017-11-27T22:42:14.391Z,93873.94
2017-11-27T22:44:43.081Z,93867.69
2017-11-27T22:47:11.629Z,93876.03
2017-11-27T22:49:40.412Z,93874.61
2017-11-27T22:52:09.149Z,93871.63
2017-11-27T22:54:37.679Z,93867.87
2017-11-27T22:57:06.375Z,93868.23
2017-11-27T22:59:35.019Z,93865.23
2017-11-27T23:02:03.712Z,93856.06
2017-11-27T23:04:32.175Z,93845.65
2017-11-27T23:07:00.699Z,93856.98
2017-11-27T23:09:29.362Z,93847.55
2017-11-27T23:11:57.941Z,93851.64
2017-11-27T23:14:26.656Z,93850.20
2017-11-27T23:16:56.155Z,93843.97
2017-11-27T23:19:24.777Z,93843.45
2017-11-27T23:21:53.522Z,93846.55
2017-11-27T23:24:22.077Z,93841.70
2017-11-27T23:26:50.743Z,93839.23
2017-11-27T23:29:19.352Z,93834.78
2017-11-27T23:31:47.990Z,93841.48
2017-11-27T23:34:16.573Z,93851.70
2017-11-27T23:36:45.279Z,93849.20
2017-11-27T23:39:13.937Z,93842.95
2017-11-27T23:41:42.549Z,93843.66
2017-11-27T23:44:11.211Z,93844.11
2017-11-27T23:46:39.635Z,93853.75
2017-11-27T23:49:07.967Z,93846.16
2017-11-27T23:51:36.321Z,93855.92
2017-11-27T23:54:04.676Z,93865.84
2017-11-27T23:56:33.007Z,93872.50
2017-11-27T23:59:01.357Z,93881.66
